Millennium — 9HJF9 — position and weather

sailwx.info

Track history (hours):
 
Tides and Currents Weather Stations Pressure Air Temp Water Temp Dewpoint Dewpoint Depression Visibility Wind Speed Wind Dir Waves Ship Positions

Millennium

Last reported at 2017-Aug-20 09:00 UTC. Time now 2017-Aug-20 13:40 UTC.
Position N 54°24' W 131°06'.

Length 294 m; draft 8.3 m.

Type: Passenger vessel. MMSI: 249055000.

Wind from 120 at 15 knots

Barometer 1022.0 mb
Air temperature 16.0 ° C
Water temperature 14.0 ° C

Date/timePositionNaut miles runAvg speedWind from/ knotsBaromVisibWave heightAir tempDewpointWater temp
2017-Aug-20 09:00N 54°24' W 131°06'3712.2 120 / 151022.0 16.0 14.0
2017-Aug-20 06:00N 53°48' W 130°54'3812.5 140 / 241019.0 5.4 13.011.2
2017-Aug-20 03:00N 53°12' W 130°36'6713.3 170 / 111024.0 5.4 16.0 16.0
2017-Aug-19 22:00N 52°12' W 129°48'11 8.8 210 / 111024.0 15.0 16.0
2017-Aug-19 20:45N 52°06' W 129°34'312.9
2017-Aug-19 20:29N 52°03' W 129°30'613.0
2017-Aug-19 20:00N 51°58' W 129°23'612.9
2017-Aug-19 19:30N 51°54' W 129°16'713.0
2017-Aug-19 19:00N 51°49' W 129°09'713.1
2017-Aug-19 18:31N 51°44' W 129°02'713.2
2017-Aug-19 18:00N 51°39' W 128°55'612.9
2017-Aug-19 17:30N 51°34' W 128°48'612.9
2017-Aug-19 17:00N 51°29' W 128°41'713.1
2017-Aug-19 16:30N 51°25' W 128°34'713.1
2017-Aug-19 16:00N 51°20' W 128°26'612.7
2017-Aug-19 15:30N 51°16' W 128°19'612.7
2017-Aug-19 15:00N 51°11' W 128°11'150.0
2017-Aug-19 15:00N 51°12' W 128°12'1414.1 220 / 81024.0 5.4 16.0 17.0
2017-Aug-19 14:00N 51°04' W 127°54'612.5
2017-Aug-19 13:30N 50°60' W 127°47'612.8
2017-Aug-19 13:00N 50°55' W 127°40'714.3
2017-Aug-19 12:31N 50°51' W 127°30'713.9
2017-Aug-19 12:00N 50°48' W 127°20'713.7
2017-Aug-19 11:30N 50°46' W 127°10'713.9
2017-Aug-19 11:00N 50°43' W 126°60'713.5
2017-Aug-19 10:30N 50°40' W 126°51'713.7
2017-Aug-19 09:59N 50°35' W 126°42'1919.1
2017-Aug-19 09:00N 50°24' W 126°18'2912.1 250 / 91022.0 15.0 13.0
2017-Aug-19 06:35N 50°22' W 125°32'313.3
2017-Aug-19 06:20N 50°20' W 125°27'310.1
2017-Aug-19 06:00N 50°18' W 125°25'713.3
2017-Aug-19 05:30N 50°11' W 125°22'612.4
2017-Aug-19 05:00N 50°06' W 125°17'714.2
2017-Aug-19 04:30N 49°59' W 125°12'918.8
2017-Aug-19 04:00N 49°53' W 125°02'1019.2
2017-Aug-19 03:30N 49°47' W 124°51'1019.5
2017-Aug-19 03:00N 49°41' W 124°38'1019.7
2017-Aug-19 02:30N 49°35' W 124°26'1019.1
2017-Aug-19 02:00N 49°31' W 124°13'11709.9
2017-Aug-19 02:00N 49°24' W 124°00'3 5.6 270 / 91021.0 5.4 18.0 18.0
2017-Aug-19 01:30N 49°27' W 123°59'1020.3
2017-Aug-19 01:00N 49°24' W 123°44'1020.1
2017-Aug-19 00:30N 49°20' W 123°30'1019.1
2017-Aug-19 00:00N 49°19' W 123°15'612.3
2017-Aug-18 23:31N 49°18' W 123°06'1 1.1
2017-Aug-18 22:58N 49°17' W 123°07'0 0.0
2017-Aug-18 22:28N 49°17' W 123°07'0 0.0
2017-Aug-18 21:58N 49°17' W 123°07'0 0.0
2017-Aug-18 21:30N 49°17' W 123°07'0 0.0
2017-Aug-18 21:00N 49°17' W 123°07'0 0.0
2017-Aug-18 20:30N 49°17' W 123°07'0 0.0
2017-Aug-18 20:00N 49°17' W 123°07'0 0.0
2017-Aug-18 19:30N 49°17' W 123°07'0 0.0
2017-Aug-18 19:00N 49°17' W 123°07'5455.1
2017-Aug-18 19:00N 49°12' W 123°06'510.9 140 / 101017.0 5.4 17.0 16.0
2017-Aug-18 18:30N 49°17' W 123°07'0 0.0
2017-Aug-18 18:00N 49°17' W 123°07'0 0.0
2017-Aug-18 17:30N 49°17' W 123°07'0 0.0
2017-Aug-18 17:00N 49°17' W 123°07'0 0.0
2017-Aug-18 16:30N 49°17' W 123°07'0 0.0
2017-Aug-18 16:00N 49°17' W 123°07'0 0.0
2017-Aug-18 15:30N 49°17' W 123°07'0 0.0
2017-Aug-18 15:00N 49°17' W 123°07'0 0.0
2017-Aug-18 14:00N 49°17' W 123°07'0 0.9
2017-Aug-18 13:30N 49°18' W 123°06'4 7.4
2017-Aug-18 13:00N 49°19' W 123°11'612.4
2017-Aug-18 12:30N 49°18' W 123°21'612.3
2017-Aug-18 12:00N 49°18' W 123°30'612.2
2017-Aug-18 11:30N 49°19' W 123°40'612.3
2017-Aug-18 11:00N 49°20' W 123°49'5340.2
2017-Aug-18 11:00N 49°18' W 123°42'1122.7 140 / 181019.0 16.4 18.0
2017-Aug-18 10:30N 49°21' W 123°58'611.9
2017-Aug-18 10:00N 49°23' W 124°07'612.0
2017-Aug-18 09:30N 49°24' W 124°16'611.6
2017-Aug-18 09:00N 49°27' W 124°24'612.4
2017-Aug-18 08:30N 49°31' W 124°31'612.4
2017-Aug-18 08:00N 49°36' W 124°37'165.5
2017-Aug-18 08:00N 49°36' W 124°36'713.8 170 / 91019.0 15.0 15.0
2017-Aug-18 07:30N 49°40' W 124°44'612.4
2017-Aug-18 07:00N 49°45' W 124°50'111225.2
2017-Aug-18 07:00N 49°54' W 125°00'510.1 170 / 121012.0 5.4 14.0 16.0
2017-Aug-18 06:30N 49°50' W 124°57'612.4
2017-Aug-18 06:00N 49°54' W 125°03'612.1
2017-Aug-18 05:30N 49°58' W 125°10'612.4
2017-Aug-18 05:00N 50°04' W 125°15'612.1
2017-Aug-18 04:31N 50°08' W 125°21'815.3
2017-Aug-18 04:00N 50°16' W 125°24'5315.2
2017-Aug-18 00:32N 50°34' W 126°41'413.5
2017-Aug-18 00:15N 50°37' W 126°45'516.3
2017-Aug-17 23:55N 50°40' W 126°52'716.5
2017-Aug-17 23:29N 50°43' W 127°02'816.4
2017-Aug-17 23:00N 50°47' W 127°13'816.7
2017-Aug-17 22:30N 50°50' W 127°25'816.6
2017-Aug-17 22:00N 50°54' W 127°37'816.5
2017-Aug-17 21:30N 50°58' W 127°48'816.3
2017-Aug-17 21:00N 51°03' W 127°58'816.0
2017-Aug-17 20:30N 51°09' W 128°07'815.9
2017-Aug-17 20:01N 51°14' W 128°17'2136.1
2017-Aug-17 20:00N 51°12' W 128°18'918.8 170 / 181020.0 14.0 16.0
2017-Aug-17 19:31N 51°20' W 128°26'816.3
2017-Aug-17 19:00N 51°25' W 128°35'815.9
2017-Aug-17 18:31N 51°31' W 128°44'815.9
2017-Aug-17 18:00N 51°37' W 128°52'816.2
2017-Aug-17 17:31N 51°43' W 129°01'816.1
2017-Aug-17 17:01N 51°49' W 129°10'9551.8
2017-Aug-17 17:00N 51°42' W 129°00'1735.1 180 / 201008.0 1.1 15.0 16.0
2017-Aug-17 16:30N 51°55' W 129°18'815.9
2017-Aug-17 16:01N 52°01' W 129°26'816.4
2017-Aug-17 15:30N 52°07' W 129°35'4919.3
2017-Aug-17 13:00N 52°48' W 130°18'4013.4 200 / 161018.0 14.4 14.0
2017-Aug-17 10:00N 53°24' W 130°48'11711.7 150 / 171018.0 14.0 15.0
2017-Aug-17 00:00N 55°18' W 131°36'0 0.0 150 / 71016.0 14.1 14.0
2017-Aug-16 21:00N 55°18' W 131°36'0 0.0 160 / 141008.0 16.0 15.0
2017-Aug-16 20:00N 55°18' W 131°36'56 8.0 160 / 101010.0 2.2 14.0 14.0
2017-Aug-16 13:00N 56°00' W 132°42'3812.7 160 / 231007.0 13.0 12.0
2017-Aug-16 10:00N 56°18' W 133°42'18 5.9 190 / 231009.0 14.0 15.0
2017-Aug-16 07:00N 56°12' W 134°12'11018.3 180 / 251011.0 0.5 13.0 13.0
2017-Aug-16 01:00N 58°00' W 134°48'20 5.0 320 / 111005.0 12.8 14.0
2017-Aug-15 21:00N 58°06' W 135°24'6 0.8 010 / 51008.0 15.0 16.0
2017-Aug-15 13:00N 58°06' W 135°12'3010.1 150 / 51010.0 11.4 12.0
2017-Aug-15 10:00N 58°36' W 135°06'48 6.9 270 / 51009.0 14.0 15.0
2017-Aug-15 03:00N 59°24' W 135°18'0 0.0 220 / 151009.0 15.8 12.0
2017-Aug-14 23:00N 59°24' W 135°18'0 0.0 230 / 171009.0 17.0 16.0
2017-Aug-14 14:00N 59°24' W 135°18'3010.1 220 / 191005.0 13.3 12.0
2017-Aug-14 11:00N 58°54' W 135°12'5613.9 150 / 221005.0 13.0 15.0
2017-Aug-14 07:00N 58°06' W 134°18'7 1.1 090 / 13 2.2 15.0 16.0
2017-Aug-14 01:00N 58°12' W 134°24'0 0.0 280 / 71006.0 15.7 11.0
2017-Aug-14 00:00N 58°12' W 134°24'23 1.9 130 / 21009.0 17.0 16.0
2017-Aug-13 12:00N 58°06' W 135°06'1736.6 140 / 61000.0 14.0 14.0
2017-Aug-13 11:31N 58°15' W 135°34'017.1
2017-Aug-13 11:30N 58°15' W 135°35'816.3
2017-Aug-13 11:00N 58°18' W 135°49'816.9
2017-Aug-13 10:30N 58°20' W 136°05'2415.8
2017-Aug-13 09:00N 58°06' W 136°42'4221.0 080 / 161002.0 12.0 16.0
2017-Aug-13 07:00N 58°24' W 137°54'9616.0 180 / 10997.0 0.5 14.0 15.0
2017-Aug-13 01:00N 59°42' W 139°42'50 7.1 230 / 9999.0 13.4 8.0
2017-Aug-12 18:00N 59°30' W 141°18'10020.1 1000.0 0.5 15.0 10.0
2017-Aug-12 13:00N 59°30' W 144°36'5518.4 050 / 15999.0 14.1 16.0
2017-Aug-12 10:00N 59°36' W 146°24'9510.6 130 / 171005.0 12.0 16.0
2017-Aug-12 01:00N 60°06' W 149°24'0 0.0 030 / 161002.0 14.2 15.0
2017-Aug-11 14:00N 60°06' W 149°24'43 8.7 020 / 31014.0 12.0 14.0
2017-Aug-11 09:00N 59°42' W 148°12'4314.3 350 / 71013.0 13.8 15.0
2017-Aug-11 06:00N 59°36' W 146°48'7919.8 270 / 31014.0 0.3 14.0 17.0
2017-Aug-11 02:00N 59°30' W 144°12'13419.1 020 / 51017.0 15.0 15.0
2017-Aug-10 19:00N 59°36' W 139°48'0 0.0 020 / 41018.0 0.3 14.0 12.0
2017-Aug-10 15:00N 59°36' W 139°48'11919.8 020 / 71014.0 12.0 12.0
2017-Aug-10 09:00N 58°12' W 137°06'   260 / 121019.0 15.7 16.0
Track history (hours):
 
Tides and Currents Weather Stations Pressure Air Temp Water Temp Dewpoint Dewpoint Depression Visibility Wind Speed Wind Dir Waves Ship Positions

Millennium

Last reported at 2017-Aug-20 09:00 UTC. Time now 2017-Aug-20 13:40 UTC.
Position N 54°24' W 131°06'.

Length 294 m; draft 8.3 m.

Type: Passenger vessel. MMSI: 249055000.

Wind from 120 at 15 knots

Barometer 1022.0 mb
Air temperature 16.0 ° C
Water temperature 14.0 ° C

Date/timePositionNaut miles runAvg speedWind from/ knotsBaromVisibWave heightAir tempDewpointWater temp
2017-Aug-20 09:00N 54°24' W 131°06'3712.2 120 / 151022.0 16.0 14.0
2017-Aug-20 06:00N 53°48' W 130°54'3812.5 140 / 241019.0 5.4 13.011.2
2017-Aug-20 03:00N 53°12' W 130°36'6713.3 170 / 111024.0 5.4 16.0 16.0
2017-Aug-19 22:00N 52°12' W 129°48'11 8.8 210 / 111024.0 15.0 16.0
2017-Aug-19 20:45N 52°06' W 129°34'312.9
2017-Aug-19 20:29N 52°03' W 129°30'613.0
2017-Aug-19 20:00N 51°58' W 129°23'612.9
2017-Aug-19 19:30N 51°54' W 129°16'713.0
2017-Aug-19 19:00N 51°49' W 129°09'713.1
2017-Aug-19 18:31N 51°44' W 129°02'713.2
2017-Aug-19 18:00N 51°39' W 128°55'612.9
2017-Aug-19 17:30N 51°34' W 128°48'612.9
2017-Aug-19 17:00N 51°29' W 128°41'713.1
2017-Aug-19 16:30N 51°25' W 128°34'713.1
2017-Aug-19 16:00N 51°20' W 128°26'612.7
2017-Aug-19 15:30N 51°16' W 128°19'612.7
2017-Aug-19 15:00N 51°11' W 128°11'150.0
2017-Aug-19 15:00N 51°12' W 128°12'1414.1 220 / 81024.0 5.4 16.0 17.0
2017-Aug-19 14:00N 51°04' W 127°54'612.5
2017-Aug-19 13:30N 50°60' W 127°47'612.8
2017-Aug-19 13:00N 50°55' W 127°40'714.3
2017-Aug-19 12:31N 50°51' W 127°30'713.9
2017-Aug-19 12:00N 50°48' W 127°20'713.7
2017-Aug-19 11:30N 50°46' W 127°10'713.9
2017-Aug-19 11:00N 50°43' W 126°60'713.5
2017-Aug-19 10:30N 50°40' W 126°51'713.7
2017-Aug-19 09:59N 50°35' W 126°42'1919.1
2017-Aug-19 09:00N 50°24' W 126°18'2912.1 250 / 91022.0 15.0 13.0
2017-Aug-19 06:35N 50°22' W 125°32'313.3
2017-Aug-19 06:20N 50°20' W 125°27'310.1
2017-Aug-19 06:00N 50°18' W 125°25'713.3
2017-Aug-19 05:30N 50°11' W 125°22'612.4
2017-Aug-19 05:00N 50°06' W 125°17'714.2
2017-Aug-19 04:30N 49°59' W 125°12'918.8
2017-Aug-19 04:00N 49°53' W 125°02'1019.2
2017-Aug-19 03:30N 49°47' W 124°51'1019.5
2017-Aug-19 03:00N 49°41' W 124°38'1019.7
2017-Aug-19 02:30N 49°35' W 124°26'1019.1
2017-Aug-19 02:00N 49°31' W 124°13'11709.9
2017-Aug-19 02:00N 49°24' W 124°00'3 5.6 270 / 91021.0 5.4 18.0 18.0
2017-Aug-19 01:30N 49°27' W 123°59'1020.3
2017-Aug-19 01:00N 49°24' W 123°44'1020.1
2017-Aug-19 00:30N 49°20' W 123°30'1019.1
2017-Aug-19 00:00N 49°19' W 123°15'612.3
2017-Aug-18 23:31N 49°18' W 123°06'1 1.1
2017-Aug-18 22:58N 49°17' W 123°07'0 0.0
2017-Aug-18 22:28N 49°17' W 123°07'0 0.0
2017-Aug-18 21:58N 49°17' W 123°07'0 0.0
2017-Aug-18 21:30N 49°17' W 123°07'0 0.0
2017-Aug-18 21:00N 49°17' W 123°07'0 0.0
2017-Aug-18 20:30N 49°17' W 123°07'0 0.0
2017-Aug-18 20:00N 49°17' W 123°07'0 0.0
2017-Aug-18 19:30N 49°17' W 123°07'0 0.0
2017-Aug-18 19:00N 49°17' W 123°07'5455.1
2017-Aug-18 19:00N 49°12' W 123°06'510.9 140 / 101017.0 5.4 17.0 16.0
2017-Aug-18 18:30N 49°17' W 123°07'0 0.0
2017-Aug-18 18:00N 49°17' W 123°07'0 0.0
2017-Aug-18 17:30N 49°17' W 123°07'0 0.0
2017-Aug-18 17:00N 49°17' W 123°07'0 0.0
2017-Aug-18 16:30N 49°17' W 123°07'0 0.0
2017-Aug-18 16:00N 49°17' W 123°07'0 0.0
2017-Aug-18 15:30N 49°17' W 123°07'0 0.0
2017-Aug-18 15:00N 49°17' W 123°07'0 0.0
2017-Aug-18 14:00N 49°17' W 123°07'0 0.9
2017-Aug-18 13:30N 49°18' W 123°06'4 7.4
2017-Aug-18 13:00N 49°19' W 123°11'612.4
2017-Aug-18 12:30N 49°18' W 123°21'612.3
2017-Aug-18 12:00N 49°18' W 123°30'612.2
2017-Aug-18 11:30N 49°19' W 123°40'612.3
2017-Aug-18 11:00N 49°20' W 123°49'5340.2
2017-Aug-18 11:00N 49°18' W 123°42'1122.7 140 / 181019.0 16.4 18.0
2017-Aug-18 10:30N 49°21' W 123°58'611.9
2017-Aug-18 10:00N 49°23' W 124°07'612.0
2017-Aug-18 09:30N 49°24' W 124°16'611.6
2017-Aug-18 09:00N 49°27' W 124°24'612.4
2017-Aug-18 08:30N 49°31' W 124°31'612.4
2017-Aug-18 08:00N 49°36' W 124°37'165.5
2017-Aug-18 08:00N 49°36' W 124°36'713.8 170 / 91019.0 15.0 15.0
2017-Aug-18 07:30N 49°40' W 124°44'612.4
2017-Aug-18 07:00N 49°45' W 124°50'111225.2
2017-Aug-18 07:00N 49°54' W 125°00'510.1 170 / 121012.0 5.4 14.0 16.0
2017-Aug-18 06:30N 49°50' W 124°57'612.4
2017-Aug-18 06:00N 49°54' W 125°03'612.1
2017-Aug-18 05:30N 49°58' W 125°10'612.4
2017-Aug-18 05:00N 50°04' W 125°15'612.1
2017-Aug-18 04:31N 50°08' W 125°21'815.3
2017-Aug-18 04:00N 50°16' W 125°24'5315.2
2017-Aug-18 00:32N 50°34' W 126°41'413.5
2017-Aug-18 00:15N 50°37' W 126°45'516.3
2017-Aug-17 23:55N 50°40' W 126°52'716.5
2017-Aug-17 23:29N 50°43' W 127°02'816.4
2017-Aug-17 23:00N 50°47' W 127°13'816.7
2017-Aug-17 22:30N 50°50' W 127°25'816.6
2017-Aug-17 22:00N 50°54' W 127°37'816.5
2017-Aug-17 21:30N 50°58' W 127°48'816.3
2017-Aug-17 21:00N 51°03' W 127°58'816.0
2017-Aug-17 20:30N 51°09' W 128°07'815.9
2017-Aug-17 20:01N 51°14' W 128°17'2136.1
2017-Aug-17 20:00N 51°12' W 128°18'918.8 170 / 181020.0 14.0 16.0
2017-Aug-17 19:31N 51°20' W 128°26'816.3
2017-Aug-17 19:00N 51°25' W 128°35'815.9
2017-Aug-17 18:31N 51°31' W 128°44'815.9
2017-Aug-17 18:00N 51°37' W 128°52'816.2
2017-Aug-17 17:31N 51°43' W 129°01'816.1
2017-Aug-17 17:01N 51°49' W 129°10'9551.8
2017-Aug-17 17:00N 51°42' W 129°00'1735.1 180 / 201008.0 1.1 15.0 16.0
2017-Aug-17 16:30N 51°55' W 129°18'815.9
2017-Aug-17 16:01N 52°01' W 129°26'816.4
2017-Aug-17 15:30N 52°07' W 129°35'4919.3
2017-Aug-17 13:00N 52°48' W 130°18'4013.4 200 / 161018.0 14.4 14.0
2017-Aug-17 10:00N 53°24' W 130°48'11711.7 150 / 171018.0 14.0 15.0
2017-Aug-17 00:00N 55°18' W 131°36'0 0.0 150 / 71016.0 14.1 14.0
2017-Aug-16 21:00N 55°18' W 131°36'0 0.0 160 / 141008.0 16.0 15.0
2017-Aug-16 20:00N 55°18' W 131°36'56 8.0 160 / 101010.0 2.2 14.0 14.0
2017-Aug-16 13:00N 56°00' W 132°42'3812.7 160 / 231007.0 13.0 12.0
2017-Aug-16 10:00N 56°18' W 133°42'18 5.9 190 / 231009.0 14.0 15.0
2017-Aug-16 07:00N 56°12' W 134°12'11018.3 180 / 251011.0 0.5 13.0 13.0
2017-Aug-16 01:00N 58°00' W 134°48'20 5.0 320 / 111005.0 12.8 14.0
2017-Aug-15 21:00N 58°06' W 135°24'6 0.8 010 / 51008.0 15.0 16.0
2017-Aug-15 13:00N 58°06' W 135°12'3010.1 150 / 51010.0 11.4 12.0
2017-Aug-15 10:00N 58°36' W 135°06'48 6.9 270 / 51009.0 14.0 15.0
2017-Aug-15 03:00N 59°24' W 135°18'0 0.0 220 / 151009.0 15.8 12.0
2017-Aug-14 23:00N 59°24' W 135°18'0 0.0 230 / 171009.0 17.0 16.0
2017-Aug-14 14:00N 59°24' W 135°18'3010.1 220 / 191005.0 13.3 12.0
2017-Aug-14 11:00N 58°54' W 135°12'5613.9 150 / 221005.0 13.0 15.0
2017-Aug-14 07:00N 58°06' W 134°18'7 1.1 090 / 13 2.2 15.0 16.0
2017-Aug-14 01:00N 58°12' W 134°24'0 0.0 280 / 71006.0 15.7 11.0
2017-Aug-14 00:00N 58°12' W 134°24'23 1.9 130 / 21009.0 17.0 16.0
2017-Aug-13 12:00N 58°06' W 135°06'1736.6 140 / 61000.0 14.0 14.0
2017-Aug-13 11:31N 58°15' W 135°34'017.1
2017-Aug-13 11:30N 58°15' W 135°35'816.3
2017-Aug-13 11:00N 58°18' W 135°49'816.9
2017-Aug-13 10:30N 58°20' W 136°05'2415.8
2017-Aug-13 09:00N 58°06' W 136°42'4221.0 080 / 161002.0 12.0 16.0
2017-Aug-13 07:00N 58°24' W 137°54'9616.0 180 / 10997.0 0.5 14.0 15.0
2017-Aug-13 01:00N 59°42' W 139°42'50 7.1 230 / 9999.0 13.4 8.0
2017-Aug-12 18:00N 59°30' W 141°18'10020.1 1000.0 0.5 15.0 10.0
2017-Aug-12 13:00N 59°30' W 144°36'5518.4 050 / 15999.0 14.1 16.0
2017-Aug-12 10:00N 59°36' W 146°24'9510.6 130 / 171005.0 12.0 16.0
2017-Aug-12 01:00N 60°06' W 149°24'0 0.0 030 / 161002.0 14.2 15.0
2017-Aug-11 14:00N 60°06' W 149°24'43 8.7 020 / 31014.0 12.0 14.0
2017-Aug-11 09:00N 59°42' W 148°12'4314.3 350 / 71013.0 13.8 15.0
2017-Aug-11 06:00N 59°36' W 146°48'7919.8 270 / 31014.0 0.3 14.0 17.0
2017-Aug-11 02:00N 59°30' W 144°12'13419.1 020 / 51017.0 15.0 15.0
2017-Aug-10 19:00N 59°36' W 139°48'0 0.0 020 / 41018.0 0.3 14.0 12.0
2017-Aug-10 15:00N 59°36' W 139°48'11919.8 020 / 71014.0 12.0 12.0
2017-Aug-10 09:00N 58°12' W 137°06'   260 / 121019.0 15.7 16.0

Dump ship's entire track history